sensor_id;sensor_type;location;lat;lon;timestamp;P1;durP1;ratioP1;P2;durP2;ratioP2
70342;SDS011;57767;42.068;24.752;2024-01-30T00:00:15;31.52;;;21.15;;
70342;SDS011;57767;42.068;24.752;2024-01-30T00:01:18;41.38;;;28.15;;
70342;SDS011;57767;42.068;24.752;2024-01-30T00:02:20;60.85;;;38.58;;
70342;SDS011;57767;42.068;24.752;2024-01-30T00:03:22;31.38;;;20.25;;
70342;SDS011;57767;42.068;24.752;2024-01-30T00:04:24;27.30;;;18.10;;
70342;SDS011;57767;42.068;24.752;2024-01-30T00:05:25;19.42;;;13.40;;
70342;SDS011;57767;42.068;24.752;2024-01-30T00:06:27;19.40;;;13.60;;
70342;SDS011;57767;42.068;24.752;2024-01-30T00:07:29;20.90;;;13.15;;
70342;SDS011;57767;42.068;24.752;2024-01-30T00:08:30;20.38;;;14.23;;
70342;SDS011;57767;42.068;24.752;2024-01-30T00:09:32;21.60;;;14.63;;
70342;SDS011;57767;42.068;24.752;2024-01-30T00:10:34;15.20;;;10.18;;
70342;SDS011;57767;42.068;24.752;2024-01-30T00:11:35;26.63;;;17.98;;
70342;SDS011;57767;42.068;24.752;2024-01-30T00:12:37;24.45;;;16.90;;
70342;SDS011;57767;42.068;24.752;2024-01-30T00:13:39;22.55;;;15.82;;
70342;SDS011;57767;42.068;24.752;2024-01-30T00:14:43;14.80;;;10.48;;
70342;SDS011;57767;42.068;24.752;2024-01-30T00:15:45;12.07;;;9.25;;
70342;SDS011;57767;42.068;24.752;2024-01-30T00:16:47;8.55;;;6.70;;
70342;SDS011;57767;42.068;24.752;2024-01-30T00:17:48;8.82;;;6.88;;
70342;SDS011;57767;42.068;24.752;2024-01-30T00:18:50;6.65;;;5.20;;
70342;SDS011;57767;42.068;24.752;2024-01-30T00:19:53;7.22;;;5.38;;
70342;SDS011;57767;42.068;24.752;2024-01-30T00:20:55;7.20;;;5.60;;
70342;SDS011;57767;42.068;24.752;2024-01-30T00:21:56;6.40;;;4.85;;
70342;SDS011;57767;42.068;24.752;2024-01-30T00:22:58;8.48;;;5.60;;
70342;SDS011;57767;42.068;24.752;2024-01-30T00:24:00;6.80;;;5.30;;
70342;SDS011;57767;42.068;24.752;2024-01-30T00:25:02;10.25;;;6.68;;
70342;SDS011;57767;42.068;24.752;2024-01-30T00:26:04;12.00;;;8.38;;
70342;SDS011;57767;42.068;24.752;2024-01-30T00:27:06;14.18;;;9.15;;
70342;SDS011;57767;42.068;24.752;2024-01-30T00:28:09;16.30;;;10.02;;
70342;SDS011;57767;42.068;24.752;2024-01-30T00:29:11;17.27;;;9.90;;
70342;SDS011;57767;42.068;24.752;2024-01-30T00:30:13;17.25;;;9.80;;
70342;SDS011;57767;42.068;24.752;2024-01-30T00:31:15;24.90;;;13.25;;
70342;SDS011;57767;42.068;24.752;2024-01-30T00:32:17;48.45;;;23.15;;
70342;SDS011;57767;42.068;24.752;2024-01-30T00:33:20;28.40;;;15.07;;
70342;SDS011;57767;42.068;24.752;2024-01-30T00:34:22;30.83;;;16.50;;
70342;SDS011;57767;42.068;24.752;2024-01-30T00:35:23;45.35;;;20.90;;
70342;SDS011;57767;42.068;24.752;2024-01-30T00:36:25;39.72;;;19.70;;
70342;SDS011;57767;42.068;24.752;2024-01-30T00:37:27;55.22;;;24.95;;
70342;SDS011;57767;42.068;24.752;2024-01-30T00:38:28;56.25;;;25.65;;
70342;SDS011;57767;42.068;24.752;2024-01-30T00:39:30;59.15;;;28.60;;
70342;SDS011;57767;42.068;24.752;2024-01-30T00:40:32;40.13;;;19.20;;
70342;SDS011;57767;42.068;24.752;2024-01-30T00:41:33;56.05;;;25.55;;
70342;SDS011;57767;42.068;24.752;2024-01-30T00:42:37;48.03;;;22.85;;
70342;SDS011;57767;42.068;24.752;2024-01-30T00:43:39;83.45;;;37.08;;
70342;SDS011;57767;42.068;24.752;2024-01-30T00:44:40;67.63;;;31.30;;
70342;SDS011;57767;42.068;24.752;2024-01-30T00:45:45;57.03;;;28.60;;
70342;SDS011;57767;42.068;24.752;2024-01-30T00:46:47;36.58;;;19.42;;
70342;SDS011;57767;42.068;24.752;2024-01-30T00:47:48;20.92;;;11.10;;
70342;SDS011;57767;42.068;24.752;2024-01-30T00:48:50;39.28;;;19.23;;
70342;SDS011;57767;42.068;24.752;2024-01-30T00:49:52;23.40;;;12.55;;
70342;SDS011;57767;42.068;24.752;2024-01-30T00:50:53;14.15;;;9.02;;
70342;SDS011;57767;42.068;24.752;2024-01-30T00:51:55;19.92;;;12.05;;
70342;SDS011;57767;42.068;24.752;2024-01-30T00:52:56;22.10;;;12.90;;
70342;SDS011;57767;42.068;24.752;2024-01-30T00:53:58;32.42;;;17.85;;
70342;SDS011;57767;42.068;24.752;2024-01-30T00:55:00;30.90;;;16.20;;
70342;SDS011;57767;42.068;24.752;2024-01-30T00:56:02;53.03;;;28.60;;
70342;SDS011;57767;42.068;24.752;2024-01-30T00:57:04;150.95;;;72.38;;
70342;SDS011;57767;42.068;24.752;2024-01-30T00:58:06;52.10;;;28.55;;
70342;SDS011;57767;42.068;24.752;2024-01-30T00:59:08;38.75;;;21.65;;
70342;SDS011;57767;42.068;24.752;2024-01-30T01:00:09;34.22;;;19.95;;
70342;SDS011;57767;42.068;24.752;2024-01-30T01:01:11;38.28;;;29.88;;
70342;SDS011;57767;42.068;24.752;2024-01-30T01:02:13;15.45;;;13.07;;
70342;SDS011;57767;42.068;24.752;2024-01-30T01:03:16;7.90;;;6.25;;
70342;SDS011;57767;42.068;24.752;2024-01-30T01:04:17;8.13;;;5.30;;
70342;SDS011;57767;42.068;24.752;2024-01-30T01:05:19;15.32;;;12.95;;
70342;SDS011;57767;42.068;24.752;2024-01-30T01:06:21;15.35;;;13.05;;
70342;SDS011;57767;42.068;24.752;2024-01-30T01:07:22;7.40;;;6.30;;
70342;SDS011;57767;42.068;24.752;2024-01-30T01:08:24;7.63;;;6.43;;
70342;SDS011;57767;42.068;24.752;2024-01-30T01:09:26;8.25;;;6.70;;
70342;SDS011;57767;42.068;24.752;2024-01-30T01:10:28;8.13;;;6.15;;
70342;SDS011;57767;42.068;24.752;2024-01-30T01:11:30;8.50;;;6.10;;
70342;SDS011;57767;42.068;24.752;2024-01-30T01:12:31;22.88;;;12.57;;
70342;SDS011;57767;42.068;24.752;2024-01-30T01:13:33;41.33;;;21.50;;
70342;SDS011;57767;42.068;24.752;2024-01-30T01:14:34;24.10;;;12.45;;
70342;SDS011;57767;42.068;24.752;2024-01-30T01:15:37;16.98;;;9.60;;
70342;SDS011;57767;42.068;24.752;2024-01-30T01:16:39;20.63;;;11.07;;
70342;SDS011;57767;42.068;24.752;2024-01-30T01:17:40;21.15;;;11.15;;
70342;SDS011;57767;42.068;24.752;2024-01-30T01:18:42;23.10;;;12.80;;
70342;SDS011;57767;42.068;24.752;2024-01-30T01:19:44;10.85;;;6.43;;
70342;SDS011;57767;42.068;24.752;2024-01-30T01:20:46;18.02;;;10.07;;
70342;SDS011;57767;42.068;24.752;2024-01-30T01:21:47;14.07;;;7.85;;
70342;SDS011;57767;42.068;24.752;2024-01-30T01:22:49;11.27;;;6.40;;
70342;SDS011;57767;42.068;24.752;2024-01-30T01:23:51;12.07;;;6.75;;
70342;SDS011;57767;42.068;24.752;2024-01-30T01:24:52;17.95;;;10.32;;
70342;SDS011;57767;42.068;24.752;2024-01-30T01:25:54;27.45;;;15.25;;
70342;SDS011;57767;42.068;24.752;2024-01-30T01:27:00;17.80;;;11.63;;
70342;SDS011;57767;42.068;24.752;2024-01-30T01:28:02;27.55;;;15.10;;
70342;SDS011;57767;42.068;24.752;2024-01-30T01:29:06;33.13;;;18.25;;
70342;SDS011;57767;42.068;24.752;2024-01-30T01:30:11;21.65;;;12.13;;
70342;SDS011;57767;42.068;24.752;2024-01-30T01:31:15;13.77;;;7.70;;
70342;SDS011;57767;42.068;24.752;2024-01-30T01:32:19;33.28;;;17.98;;
70342;SDS011;57767;42.068;24.752;2024-01-30T01:33:22;18.25;;;10.18;;
70342;SDS011;57767;42.068;24.752;2024-01-30T01:34:24;16.75;;;10.10;;
70342;SDS011;57767;42.068;24.752;2024-01-30T01:35:30;19.42;;;11.38;;
70342;SDS011;57767;42.068;24.752;2024-01-30T01:36:32;63.53;;;31.98;;
70342;SDS011;57767;42.068;24.752;2024-01-30T01:37:34;42.15;;;22.70;;
70342;SDS011;57767;42.068;24.752;2024-01-30T01:38:35;97.25;;;45.13;;
70342;SDS011;57767;42.068;24.752;2024-01-30T01:39:37;32.83;;;18.55;;
70342;SDS011;57767;42.068;24.752;2024-01-30T01:40:39;120.72;;;52.53;;
70342;SDS011;57767;42.068;24.752;2024-01-30T01:41:41;37.08;;;20.35;;
70342;SDS011;57767;42.068;24.752;2024-01-30T01:42:43;23.63;;;11.70;;
70342;SDS011;57767;42.068;24.752;2024-01-30T01:43:44;14.65;;;8.48;;
70342;SDS011;57767;42.068;24.752;2024-01-30T01:44:46;24.70;;;14.50;;
70342;SDS011;57767;42.068;24.752;2024-01-30T01:45:48;9.38;;;6.25;;
70342;SDS011;57767;42.068;24.752;2024-01-30T01:46:50;6.75;;;5.60;;
70342;SDS011;57767;42.068;24.752;2024-01-30T01:47:53;7.90;;;5.82;;
70342;SDS011;57767;42.068;24.752;2024-01-30T01:48:55;6.85;;;5.28;;
70342;SDS011;57767;42.068;24.752;2024-01-30T01:49:58;7.60;;;5.22;;
70342;SDS011;57767;42.068;24.752;2024-01-30T01:51:00;8.32;;;4.93;;
70342;SDS011;57767;42.068;24.752;2024-01-30T01:52:02;6.47;;;4.43;;
70342;SDS011;57767;42.068;24.752;2024-01-30T01:53:04;7.20;;;4.30;;
70342;SDS011;57767;42.068;24.752;2024-01-30T01:54:09;8.65;;;4.95;;
70342;SDS011;57767;42.068;24.752;2024-01-30T01:55:11;7.38;;;4.22;;
70342;SDS011;57767;42.068;24.752;2024-01-30T01:56:13;6.60;;;5.70;;
70342;SDS011;57767;42.068;24.752;2024-01-30T01:57:16;8.18;;;4.82;;
70342;SDS011;57767;42.068;24.752;2024-01-30T01:58:17;7.53;;;5.30;;
70342;SDS011;57767;42.068;24.752;2024-01-30T01:59:21;14.00;;;6.55;;
70342;SDS011;57767;42.068;24.752;2024-01-30T02:00:24;10.20;;;6.75;;
70342;SDS011;57767;42.068;24.752;2024-01-30T02:01:26;10.23;;;7.07;;
70342;SDS011;57767;42.068;24.752;2024-01-30T02:02:29;11.45;;;7.22;;
70342;SDS011;57767;42.068;24.752;2024-01-30T02:03:32;9.93;;;6.68;;
70342;SDS011;57767;42.068;24.752;2024-01-30T02:04:35;8.82;;;6.43;;
70342;SDS011;57767;42.068;24.752;2024-01-30T02:05:37;8.98;;;5.85;;
70342;SDS011;57767;42.068;24.752;2024-01-30T02:06:39;8.20;;;5.28;;
70342;SDS011;57767;42.068;24.752;2024-01-30T02:07:41;6.57;;;5.18;;
70342;SDS011;57767;42.068;24.752;2024-01-30T02:08:43;7.63;;;5.32;;
70342;SDS011;57767;42.068;24.752;2024-01-30T02:09:45;8.32;;;5.63;;
70342;SDS011;57767;42.068;24.752;2024-01-30T02:10:46;6.68;;;5.00;;
70342;SDS011;57767;42.068;24.752;2024-01-30T02:11:48;5.10;;;4.60;;
70342;SDS011;57767;42.068;24.752;2024-01-30T02:12:50;6.07;;;4.55;;
70342;SDS011;57767;42.068;24.752;2024-01-30T02:13:52;7.03;;;5.43;;
70342;SDS011;57767;42.068;24.752;2024-01-30T02:14:53;7.88;;;5.70;;
70342;SDS011;57767;42.068;24.752;2024-01-30T02:15:56;7.22;;;5.07;;
70342;SDS011;57767;42.068;24.752;2024-01-30T02:16:59;13.30;;;7.18;;
70342;SDS011;57767;42.068;24.752;2024-01-30T02:18:00;16.40;;;9.95;;
70342;SDS011;57767;42.068;24.752;2024-01-30T02:19:02;15.85;;;9.35;;
70342;SDS011;57767;42.068;24.752;2024-01-30T02:20:04;15.18;;;8.65;;
70342;SDS011;57767;42.068;24.752;2024-01-30T02:21:07;12.38;;;7.85;;
70342;SDS011;57767;42.068;24.752;2024-01-30T02:22:09;14.40;;;8.45;;
70342;SDS011;57767;42.068;24.752;2024-01-30T02:23:10;18.27;;;9.85;;
70342;SDS011;57767;42.068;24.752;2024-01-30T02:24:13;17.73;;;9.93;;
70342;SDS011;57767;42.068;24.752;2024-01-30T02:25:15;18.25;;;9.95;;
70342;SDS011;57767;42.068;24.752;2024-01-30T02:26:17;16.17;;;9.27;;
70342;SDS011;57767;42.068;24.752;2024-01-30T02:27:18;15.70;;;9.05;;
70342;SDS011;57767;42.068;24.752;2024-01-30T02:28:20;17.15;;;9.63;;
70342;SDS011;57767;42.068;24.752;2024-01-30T02:29:22;21.67;;;11.10;;
70342;SDS011;57767;42.068;24.752;2024-01-30T02:30:23;24.95;;;14.23;;
70342;SDS011;57767;42.068;24.752;2024-01-30T02:31:25;23.63;;;13.75;;
70342;SDS011;57767;42.068;24.752;2024-01-30T02:32:27;19.58;;;11.35;;
70342;SDS011;57767;42.068;24.752;2024-01-30T02:33:29;20.42;;;12.10;;
70342;SDS011;57767;42.068;24.752;2024-01-30T02:34:30;20.05;;;11.63;;
70342;SDS011;57767;42.068;24.752;2024-01-30T02:35:32;18.58;;;11.25;;
70342;SDS011;57767;42.068;24.752;2024-01-30T02:36:34;19.02;;;10.50;;
70342;SDS011;57767;42.068;24.752;2024-01-30T02:37:36;14.48;;;8.90;;
70342;SDS011;57767;42.068;24.752;2024-01-30T02:38:37;13.60;;;8.60;;
70342;SDS011;57767;42.068;24.752;2024-01-30T02:39:39;11.93;;;7.25;;
70342;SDS011;57767;42.068;24.752;2024-01-30T02:40:41;10.20;;;6.50;;
70342;SDS011;57767;42.068;24.752;2024-01-30T02:41:42;8.57;;;5.78;;
70342;SDS011;57767;42.068;24.752;2024-01-30T02:42:44;9.32;;;6.07;;
70342;SDS011;57767;42.068;24.752;2024-01-30T02:43:45;7.32;;;5.43;;
70342;SDS011;57767;42.068;24.752;2024-01-30T02:44:48;5.75;;;4.63;;
70342;SDS011;57767;42.068;24.752;2024-01-30T02:45:49;6.60;;;5.20;;
70342;SDS011;57767;42.068;24.752;2024-01-30T02:46:51;8.65;;;5.05;;
70342;SDS011;57767;42.068;24.752;2024-01-30T02:47:55;6.90;;;5.45;;
70342;SDS011;57767;42.068;24.752;2024-01-30T02:48:57;7.07;;;4.97;;
70342;SDS011;57767;42.068;24.752;2024-01-30T02:50:01;6.97;;;5.35;;
70342;SDS011;57767;42.068;24.752;2024-01-30T02:51:04;6.60;;;5.50;;
70342;SDS011;57767;42.068;24.752;2024-01-30T02:52:05;7.05;;;5.15;;
70342;SDS011;57767;42.068;24.752;2024-01-30T02:53:07;6.22;;;4.95;;
70342;SDS011;57767;42.068;24.752;2024-01-30T02:54:08;6.80;;;5.40;;
70342;SDS011;57767;42.068;24.752;2024-01-30T02:55:10;6.30;;;5.30;;
70342;SDS011;57767;42.068;24.752;2024-01-30T02:56:13;7.78;;;5.72;;
70342;SDS011;57767;42.068;24.752;2024-01-30T02:57:14;8.50;;;6.55;;
70342;SDS011;57767;42.068;24.752;2024-01-30T02:58:16;8.95;;;6.70;;
70342;SDS011;57767;42.068;24.752;2024-01-30T02:59:18;12.40;;;7.53;;
70342;SDS011;57767;42.068;24.752;2024-01-30T03:00:20;10.25;;;7.38;;
70342;SDS011;57767;42.068;24.752;2024-01-30T03:01:21;12.35;;;8.70;;
70342;SDS011;57767;42.068;24.752;2024-01-30T03:02:24;11.35;;;8.23;;
70342;SDS011;57767;42.068;24.752;2024-01-30T03:03:26;9.60;;;7.95;;
70342;SDS011;57767;42.068;24.752;2024-01-30T03:04:27;12.85;;;9.05;;
70342;SDS011;57767;42.068;24.752;2024-01-30T03:05:31;16.60;;;10.02;;
70342;SDS011;57767;42.068;24.752;2024-01-30T03:06:32;14.48;;;9.90;;
70342;SDS011;57767;42.068;24.752;2024-01-30T03:07:34;21.40;;;12.73;;
70342;SDS011;57767;42.068;24.752;2024-01-30T03:08:36;20.63;;;12.32;;
70342;SDS011;57767;42.068;24.752;2024-01-30T03:09:38;17.67;;;10.35;;
70342;SDS011;57767;42.068;24.752;2024-01-30T03:10:43;13.90;;;9.70;;
70342;SDS011;57767;42.068;24.752;2024-01-30T03:11:44;16.35;;;10.40;;
70342;SDS011;57767;42.068;24.752;2024-01-30T03:12:46;13.95;;;9.95;;
70342;SDS011;57767;42.068;24.752;2024-01-30T03:13:48;16.92;;;10.07;;
70342;SDS011;57767;42.068;24.752;2024-01-30T03:14:49;15.30;;;10.13;;
70342;SDS011;57767;42.068;24.752;2024-01-30T03:15:51;14.88;;;10.43;;
70342;SDS011;57767;42.068;24.752;2024-01-30T03:16:53;18.20;;;11.25;;
70342;SDS011;57767;42.068;24.752;2024-01-30T03:17:54;18.98;;;12.90;;
70342;SDS011;57767;42.068;24.752;2024-01-30T03:18:56;22.02;;;12.68;;
70342;SDS011;57767;42.068;24.752;2024-01-30T03:19:58;20.20;;;13.07;;
70342;SDS011;57767;42.068;24.752;2024-01-30T03:21:00;22.65;;;14.45;;
70342;SDS011;57767;42.068;24.752;2024-01-30T03:22:02;23.50;;;14.13;;
70342;SDS011;57767;42.068;24.752;2024-01-30T03:23:04;23.23;;;15.15;;
70342;SDS011;57767;42.068;24.752;2024-01-30T03:24:05;33.20;;;18.50;;
70342;SDS011;57767;42.068;24.752;2024-01-30T03:25:07;29.40;;;17.70;;
70342;SDS011;57767;42.068;24.752;2024-01-30T03:26:09;23.15;;;15.27;;
70342;SDS011;57767;42.068;24.752;2024-01-30T03:27:12;21.50;;;13.02;;
70342;SDS011;57767;42.068;24.752;2024-01-30T03:28:13;19.73;;;12.80;;
70342;SDS011;57767;42.068;24.752;2024-01-30T03:29:15;18.23;;;12.90;;
70342;SDS011;57767;42.068;24.752;2024-01-30T03:30:17;19.73;;;13.27;;
70342;SDS011;57767;42.068;24.752;2024-01-30T03:31:19;18.35;;;13.00;;
70342;SDS011;57767;42.068;24.752;2024-01-30T03:32:20;19.65;;;12.60;;
70342;SDS011;57767;42.068;24.752;2024-01-30T03:33:22;19.73;;;13.25;;
70342;SDS011;57767;42.068;24.752;2024-01-30T03:34:23;18.48;;;13.15;;
70342;SDS011;57767;42.068;24.752;2024-01-30T03:35:25;18.85;;;13.63;;
70342;SDS011;57767;42.068;24.752;2024-01-30T03:36:27;18.25;;;13.55;;
70342;SDS011;57767;42.068;24.752;2024-01-30T03:37:29;21.65;;;13.75;;
70342;SDS011;57767;42.068;24.752;2024-01-30T03:38:31;18.35;;;13.15;;
70342;SDS011;57767;42.068;24.752;2024-01-30T03:39:34;20.73;;;13.93;;
70342;SDS011;57767;42.068;24.752;2024-01-30T03:40:35;18.15;;;13.00;;
70342;SDS011;57767;42.068;24.752;2024-01-30T03:41:37;19.35;;;13.35;;
70342;SDS011;57767;42.068;24.752;2024-01-30T03:42:38;19.90;;;14.02;;
70342;SDS011;57767;42.068;24.752;2024-01-30T03:43:40;22.60;;;14.07;;
70342;SDS011;57767;42.068;24.752;2024-01-30T03:44:42;23.48;;;14.95;;
70342;SDS011;57767;42.068;24.752;2024-01-30T03:45:44;25.23;;;14.65;;
70342;SDS011;57767;42.068;24.752;2024-01-30T03:46:45;20.25;;;14.30;;
70342;SDS011;57767;42.068;24.752;2024-01-30T03:47:47;58.63;;;39.42;;
70342;SDS011;57767;42.068;24.752;2024-01-30T03:48:49;22.27;;;16.48;;
70342;SDS011;57767;42.068;24.752;2024-01-30T03:49:50;19.77;;;13.00;;
70342;SDS011;57767;42.068;24.752;2024-01-30T03:50:52;20.83;;;14.30;;
70342;SDS011;57767;42.068;24.752;2024-01-30T03:51:53;20.20;;;13.38;;
70342;SDS011;57767;42.068;24.752;2024-01-30T03:52:55;20.52;;;13.73;;
70342;SDS011;57767;42.068;24.752;2024-01-30T03:53:57;21.52;;;13.77;;
70342;SDS011;57767;42.068;24.752;2024-01-30T03:54:58;23.85;;;14.60;;
70342;SDS011;57767;42.068;24.752;2024-01-30T03:56:00;23.70;;;15.38;;
70342;SDS011;57767;42.068;24.752;2024-01-30T03:57:02;23.90;;;14.95;;
70342;SDS011;57767;42.068;24.752;2024-01-30T03:58:03;21.55;;;15.25;;
70342;SDS011;57767;42.068;24.752;2024-01-30T03:59:05;26.15;;;15.80;;
70342;SDS011;57767;42.068;24.752;2024-01-30T04:00:07;25.48;;;16.90;;
70342;SDS011;57767;42.068;24.752;2024-01-30T04:01:13;25.48;;;15.93;;
70342;SDS011;57767;42.068;24.752;2024-01-30T04:02:16;24.48;;;17.27;;
70342;SDS011;57767;42.068;24.752;2024-01-30T04:03:19;25.40;;;16.33;;
70342;SDS011;57767;42.068;24.752;2024-01-30T04:04:21;23.90;;;16.67;;
70342;SDS011;57767;42.068;24.752;2024-01-30T04:05:22;24.90;;;16.27;;
70342;SDS011;57767;42.068;24.752;2024-01-30T04:06:24;20.08;;;15.05;;
70342;SDS011;57767;42.068;24.752;2024-01-30T04:07:26;19.85;;;15.18;;
70342;SDS011;57767;42.068;24.752;2024-01-30T04:08:27;22.95;;;15.52;;
70342;SDS011;57767;42.068;24.752;2024-01-30T04:09:29;25.33;;;15.32;;
70342;SDS011;57767;42.068;24.752;2024-01-30T04:10:30;23.52;;;14.95;;
70342;SDS011;57767;42.068;24.752;2024-01-30T04:11:32;20.73;;;13.95;;
70342;SDS011;57767;42.068;24.752;2024-01-30T04:12:34;22.33;;;14.35;;
70342;SDS011;57767;42.068;24.752;2024-01-30T04:13:35;19.83;;;13.48;;
70342;SDS011;57767;42.068;24.752;2024-01-30T04:14:38;20.48;;;13.77;;
70342;SDS011;57767;42.068;24.752;2024-01-30T04:15:40;19.58;;;14.38;;
70342;SDS011;57767;42.068;24.752;2024-01-30T04:16:42;20.52;;;13.50;;
70342;SDS011;57767;42.068;24.752;2024-01-30T04:17:44;22.92;;;14.13;;
70342;SDS011;57767;42.068;24.752;2024-01-30T04:18:45;17.33;;;13.18;;
70342;SDS011;57767;42.068;24.752;2024-01-30T04:19:47;18.73;;;13.15;;
70342;SDS011;57767;42.068;24.752;2024-01-30T04:20:49;19.15;;;13.52;;
70342;SDS011;57767;42.068;24.752;2024-01-30T04:21:50;18.25;;;12.98;;
70342;SDS011;57767;42.068;24.752;2024-01-30T04:22:52;21.55;;;13.52;;
70342;SDS011;57767;42.068;24.752;2024-01-30T04:23:54;18.83;;;13.23;;
70342;SDS011;57767;42.068;24.752;2024-01-30T04:24:55;21.55;;;14.27;;
70342;SDS011;57767;42.068;24.752;2024-01-30T04:25:57;22.58;;;15.38;;
70342;SDS011;57767;42.068;24.752;2024-01-30T04:26:59;37.22;;;20.25;;
70342;SDS011;57767;42.068;24.752;2024-01-30T04:28:00;38.40;;;21.40;;
70342;SDS011;57767;42.068;24.752;2024-01-30T04:29:02;40.35;;;23.90;;
70342;SDS011;57767;42.068;24.752;2024-01-30T04:30:04;26.48;;;17.30;;
70342;SDS011;57767;42.068;24.752;2024-01-30T04:31:06;25.95;;;17.00;;
70342;SDS011;57767;42.068;24.752;2024-01-30T04:32:08;17.13;;;12.70;;
70342;SDS011;57767;42.068;24.752;2024-01-30T04:33:10;24.15;;;17.02;;
70342;SDS011;57767;42.068;24.752;2024-01-30T04:34:12;37.08;;;23.40;;
70342;SDS011;57767;42.068;24.752;2024-01-30T04:35:14;19.20;;;13.65;;
70342;SDS011;57767;42.068;24.752;2024-01-30T04:36:16;17.95;;;11.93;;
70342;SDS011;57767;42.068;24.752;2024-01-30T04:37:18;17.90;;;12.90;;
70342;SDS011;57767;42.068;24.752;2024-01-30T04:38:19;16.70;;;11.93;;
70342;SDS011;57767;42.068;24.752;2024-01-30T04:39:21;18.75;;;12.18;;
70342;SDS011;57767;42.068;24.752;2024-01-30T04:40:23;16.40;;;11.95;;
70342;SDS011;57767;42.068;24.752;2024-01-30T04:41:25;18.17;;;12.43;;
70342;SDS011;57767;42.068;24.752;2024-01-30T04:42:27;16.80;;;12.02;;
70342;SDS011;57767;42.068;24.752;2024-01-30T04:43:29;16.83;;;12.07;;
70342;SDS011;57767;42.068;24.752;2024-01-30T04:44:31;18.60;;;12.10;;
70342;SDS011;57767;42.068;24.752;2024-01-30T04:45:33;16.05;;;12.60;;
70342;SDS011;57767;42.068;24.752;2024-01-30T04:46:34;17.52;;;12.35;;
70342;SDS011;57767;42.068;24.752;2024-01-30T04:47:36;15.07;;;11.57;;
70342;SDS011;57767;42.068;24.752;2024-01-30T04:48:38;17.25;;;12.32;;
70342;SDS011;57767;42.068;24.752;2024-01-30T04:49:39;16.30;;;12.25;;
70342;SDS011;57767;42.068;24.752;2024-01-30T04:50:41;16.13;;;11.85;;
70342;SDS011;57767;42.068;24.752;2024-01-30T04:51:43;17.13;;;12.23;;
70342;SDS011;57767;42.068;24.752;2024-01-30T04:52:44;17.95;;;12.05;;
70342;SDS011;57767;42.068;24.752;2024-01-30T04:53:46;18.02;;;11.93;;
70342;SDS011;57767;42.068;24.752;2024-01-30T04:54:48;17.48;;;11.40;;
70342;SDS011;57767;42.068;24.752;2024-01-30T04:55:49;16.25;;;12.32;;
70342;SDS011;57767;42.068;24.752;2024-01-30T04:56:51;16.33;;;11.93;;
70342;SDS011;57767;42.068;24.752;2024-01-30T04:57:53;17.45;;;11.35;;
70342;SDS011;57767;42.068;24.752;2024-01-30T04:58:54;15.77;;;11.25;;
70342;SDS011;57767;42.068;24.752;2024-01-30T04:59:56;18.20;;;11.57;;
70342;SDS011;57767;42.068;24.752;2024-01-30T05:00:58;17.38;;;11.88;;
70342;SDS011;57767;42.068;24.752;2024-01-30T05:02:00;17.40;;;12.18;;
70342;SDS011;57767;42.068;24.752;2024-01-30T05:03:01;17.00;;;12.23;;
70342;SDS011;57767;42.068;24.752;2024-01-30T05:04:03;17.35;;;12.35;;
70342;SDS011;57767;42.068;24.752;2024-01-30T05:05:05;18.23;;;12.43;;
70342;SDS011;57767;42.068;24.752;2024-01-30T05:06:07;19.98;;;12.93;;
70342;SDS011;57767;42.068;24.752;2024-01-30T05:07:08;16.70;;;11.88;;
70342;SDS011;57767;42.068;24.752;2024-01-30T05:08:10;16.98;;;12.45;;
70342;SDS011;57767;42.068;24.752;2024-01-30T05:09:12;17.50;;;12.63;;
70342;SDS011;57767;42.068;24.752;2024-01-30T05:10:13;47.08;;;26.27;;
70342;SDS011;57767;42.068;24.752;2024-01-30T05:11:15;33.63;;;20.17;;
70342;SDS011;57767;42.068;24.752;2024-01-30T05:12:17;24.17;;;16.02;;
70342;SDS011;57767;42.068;24.752;2024-01-30T05:13:18;19.05;;;14.35;;
70342;SDS011;57767;42.068;24.752;2024-01-30T05:14:20;16.73;;;12.25;;
70342;SDS011;57767;42.068;24.752;2024-01-30T05:15:22;17.15;;;10.93;;
70342;SDS011;57767;42.068;24.752;2024-01-30T05:16:23;15.15;;;11.90;;
70342;SDS011;57767;42.068;24.752;2024-01-30T05:17:25;18.17;;;12.48;;
70342;SDS011;57767;42.068;24.752;2024-01-30T05:18:26;16.27;;;11.85;;
70342;SDS011;57767;42.068;24.752;2024-01-30T05:19:28;20.63;;;12.63;;
70342;SDS011;57767;42.068;24.752;2024-01-30T05:20:30;16.40;;;12.50;;
70342;SDS011;57767;42.068;24.752;2024-01-30T05:21:32;16.80;;;12.57;;
70342;SDS011;57767;42.068;24.752;2024-01-30T05:22:33;23.38;;;16.35;;
70342;SDS011;57767;42.068;24.752;2024-01-30T05:23:35;35.88;;;23.27;;
70342;SDS011;57767;42.068;24.752;2024-01-30T05:24:36;29.40;;;20.17;;
70342;SDS011;57767;42.068;24.752;2024-01-30T05:25:38;20.80;;;14.75;;
70342;SDS011;57767;42.068;24.752;2024-01-30T05:26:40;17.67;;;13.18;;
70342;SDS011;57767;42.068;24.752;2024-01-30T05:27:41;21.33;;;13.90;;
70342;SDS011;57767;42.068;24.752;2024-01-30T05:28:43;20.27;;;14.65;;
70342;SDS011;57767;42.068;24.752;2024-01-30T05:29:47;22.85;;;14.63;;
70342;SDS011;57767;42.068;24.752;2024-01-30T05:30:49;24.15;;;15.32;;
70342;SDS011;57767;42.068;24.752;2024-01-30T05:31:51;29.42;;;17.60;;
70342;SDS011;57767;42.068;24.752;2024-01-30T05:32:53;46.53;;;26.50;;
70342;SDS011;57767;42.068;24.752;2024-01-30T05:33:54;57.08;;;32.45;;
70342;SDS011;57767;42.068;24.752;2024-01-30T05:34:56;49.13;;;29.35;;
70342;SDS011;57767;42.068;24.752;2024-01-30T05:35:58;44.67;;;27.40;;
70342;SDS011;57767;42.068;24.752;2024-01-30T05:37:00;38.10;;;22.67;;
70342;SDS011;57767;42.068;24.752;2024-01-30T05:38:02;29.83;;;19.08;;
70342;SDS011;57767;42.068;24.752;2024-01-30T05:39:04;37.53;;;22.00;;
70342;SDS011;57767;42.068;24.752;2024-01-30T05:40:09;59.05;;;32.35;;
70342;SDS011;57767;42.068;24.752;2024-01-30T05:41:11;52.70;;;28.85;;
70342;SDS011;57767;42.068;24.752;2024-01-30T05:42:13;38.20;;;22.38;;
70342;SDS011;57767;42.068;24.752;2024-01-30T05:43:16;24.38;;;17.15;;
70342;SDS011;57767;42.068;24.752;2024-01-30T05:44:17;24.15;;;17.17;;
70342;SDS011;57767;42.068;24.752;2024-01-30T05:45:19;25.63;;;17.83;;
70342;SDS011;57767;42.068;24.752;2024-01-30T05:46:21;23.83;;;16.83;;
70342;SDS011;57767;42.068;24.752;2024-01-30T05:47:26;42.50;;;24.30;;
70342;SDS011;57767;42.068;24.752;2024-01-30T05:48:28;269.33;;;106.28;;
70342;SDS011;57767;42.068;24.752;2024-01-30T05:49:29;258.45;;;100.63;;
70342;SDS011;57767;42.068;24.752;2024-01-30T05:50:31;86.45;;;39.08;;
70342;SDS011;57767;42.068;24.752;2024-01-30T05:51:32;38.10;;;22.40;;
70342;SDS011;57767;42.068;24.752;2024-01-30T05:52:34;26.63;;;15.75;;
70342;SDS011;57767;42.068;24.752;2024-01-30T05:53:36;20.75;;;13.20;;
70342;SDS011;57767;42.068;24.752;2024-01-30T05:54:38;18.85;;;11.80;;
70342;SDS011;57767;42.068;24.752;2024-01-30T05:55:39;18.67;;;12.30;;
70342;SDS011;57767;42.068;24.752;2024-01-30T05:56:41;14.45;;;11.45;;
70342;SDS011;57767;42.068;24.752;2024-01-30T05:57:42;17.40;;;11.82;;
70342;SDS011;57767;42.068;24.752;2024-01-30T05:58:44;16.50;;;11.57;;